createdAt,value
2023-03-21T00:00:36.069Z,26.47
2023-03-21T00:03:04.183Z,28.57
2023-03-21T00:05:32.401Z,27.20
2023-03-21T00:08:01.851Z,25.80
2023-03-21T00:10:40.527Z,27.80
2023-03-21T00:13:13.285Z,26.67
2023-03-21T00:16:05.637Z,25.93
2023-03-21T00:18:42.226Z,27.33
2023-03-21T00:21:39.622Z,27.83
2023-03-21T00:24:03.480Z,27.33
2023-03-21T00:26:31.705Z,27.77
2023-03-21T00:28:59.722Z,28.63
2023-03-21T00:31:29.204Z,27.67
2023-03-21T00:33:57.591Z,29.17
2023-03-21T00:36:26.010Z,28.20
2023-03-21T00:38:54.416Z,30.63
2023-03-21T00:41:39.278Z,29.60
2023-03-21T00:44:09.530Z,28.17
2023-03-21T00:47:00.531Z,27.17
2023-03-21T00:49:27.706Z,27.57
2023-03-21T00:51:59.496Z,28.47
2023-03-21T00:54:33.793Z,29.17
2023-03-21T00:57:03.033Z,28.87
2023-03-21T00:59:31.240Z,32.50
2023-03-21T01:02:01.299Z,32.30
2023-03-21T01:04:29.847Z,32.13
2023-03-21T01:06:57.837Z,31.37
2023-03-21T01:09:26.553Z,30.13
2023-03-21T01:11:54.696Z,30.63
2023-03-21T01:14:24.164Z,32.93
2023-03-21T01:16:53.732Z,30.77
2023-03-21T01:19:40.960Z,31.50
2023-03-21T01:22:16.458Z,32.23
2023-03-21T01:24:53.174Z,28.87
2023-03-21T01:27:23.621Z,29.97
2023-03-21T01:29:51.580Z,28.77
2023-03-21T01:32:19.590Z,29.80
2023-03-21T01:34:48.993Z,29.73
2023-03-21T01:37:17.848Z,27.00
2023-03-21T01:39:45.910Z,28.47
2023-03-21T01:42:15.482Z,28.07
2023-03-21T01:44:58.341Z,26.83
2023-03-21T01:47:26.760Z,26.43
2023-03-21T01:49:58.829Z,25.73
2023-03-21T01:52:37.119Z,24.67
2023-03-21T01:55:11.966Z,24.63
2023-03-21T01:57:58.168Z,24.33
2023-03-21T02:00:32.658Z,24.70
2023-03-21T02:03:13.567Z,24.47
2023-03-21T02:05:52.458Z,23.07
2023-03-21T02:08:25.909Z,23.13
2023-03-21T02:11:01.574Z,23.57
2023-03-21T02:13:29.589Z,23.10
2023-03-21T02:16:02.973Z,23.67
2023-03-21T02:18:39.742Z,24.33
2023-03-21T02:21:36.348Z,23.73
2023-03-21T02:24:32.381Z,24.30
2023-03-21T02:27:09.362Z,24.93
2023-03-21T02:30:13.004Z,24.20
2023-03-21T02:33:00.984Z,25.33
2023-03-21T02:35:54.539Z,24.27
2023-03-21T02:38:30.665Z,23.77
2023-03-21T02:41:16.609Z,24.73
2023-03-21T02:43:53.392Z,23.90
2023-03-21T02:46:33.386Z,24.80
2023-03-21T02:49:10.498Z,25.10
2023-03-21T02:51:41.104Z,24.63
2023-03-21T02:54:30.328Z,24.57
2023-03-21T02:57:05.459Z,24.57
2023-03-21T02:59:39.378Z,25.67
2023-03-21T03:02:10.195Z,25.07
2023-03-21T03:04:38.254Z,26.37
2023-03-21T03:07:27.267Z,26.87
2023-03-21T03:10:12.894Z,26.40
2023-03-21T03:12:50.650Z,26.83
2023-03-21T03:15:29.329Z,28.07
2023-03-21T03:18:06.214Z,27.73
2023-03-21T03:20:44.377Z,28.73
2023-03-21T03:23:23.127Z,28.93
2023-03-21T03:25:57.506Z,29.47
2023-03-21T03:28:30.904Z,29.27
2023-03-21T03:31:09.220Z,28.80
2023-03-21T03:33:41.598Z,29.87
2023-03-21T03:36:18.854Z,29.90
2023-03-21T03:38:53.387Z,29.77
2023-03-21T03:41:27.049Z,28.40
2023-03-21T03:43:58.558Z,29.13
2023-03-21T03:46:30.838Z,29.43
2023-03-21T03:49:04.155Z,30.07
2023-03-21T03:51:37.781Z,30.97
2023-03-21T03:54:10.025Z,30.87
2023-03-21T03:56:40.844Z,29.80
2023-03-21T03:59:09.118Z,29.03
2023-03-21T04:01:37.541Z,27.17
2023-03-21T04:04:12.911Z,26.60
2023-03-21T04:06:41.587Z,27.33
2023-03-21T04:09:20.658Z,25.83
2023-03-21T04:11:51.465Z,24.13
2023-03-21T04:14:19.497Z,24.83
2023-03-21T04:16:47.468Z,24.87
2023-03-21T04:19:15.945Z,23.90
2023-03-21T04:21:44.151Z,24.70
2023-03-21T04:24:13.912Z,24.73
2023-03-21T04:26:42.010Z,24.93
2023-03-21T04:29:11.379Z,25.27
2023-03-21T04:31:41.597Z,24.77
2023-03-21T04:34:12.412Z,23.50
2023-03-21T04:36:43.523Z,25.43
2023-03-21T04:39:13.182Z,24.93
2023-03-21T04:41:41.619Z,23.90
2023-03-21T04:44:12.468Z,23.50
2023-03-21T04:46:41.077Z,23.67
2023-03-21T04:49:09.448Z,23.07
2023-03-21T04:51:38.875Z,24.63
2023-03-21T04:56:36.373Z,25.07
2023-03-21T04:59:08.493Z,24.63
2023-03-21T05:01:37.951Z,24.40
2023-03-21T05:04:07.052Z,24.33
2023-03-21T05:06:35.353Z,26.10
2023-03-21T05:09:05.698Z,25.57
2023-03-21T05:11:36.072Z,25.87
2023-03-21T05:14:04.282Z,26.20
2023-03-21T05:16:32.289Z,25.87
2023-03-21T05:19:04.197Z,25.03
2023-03-21T05:21:34.210Z,26.87
2023-03-21T05:24:03.649Z,25.83
2023-03-21T05:26:31.665Z,26.80
2023-03-21T05:28:59.662Z,25.73
2023-03-21T05:31:27.593Z,24.60
2023-03-21T05:33:55.724Z,25.70
2023-03-21T05:36:25.215Z,25.90
2023-03-21T05:38:53.178Z,25.50
2023-03-21T05:41:21.447Z,26.03
2023-03-21T05:43:49.400Z,24.30
2023-03-21T05:46:17.529Z,26.60
2023-03-21T05:48:45.539Z,25.30
2023-03-21T05:51:13.529Z,25.03
2023-03-21T05:53:43.007Z,27.37
2023-03-21T05:56:11.598Z,27.17
2023-03-21T05:58:39.613Z,27.20
2023-03-21T06:01:08.435Z,28.10
2023-03-21T06:03:36.754Z,27.27
2023-03-21T06:06:05.148Z,27.27
2023-03-21T06:08:33.191Z,27.90
2023-03-21T06:11:02.712Z,26.50
2023-03-21T06:13:32.718Z,27.27
2023-03-21T06:16:01.583Z,26.50
2023-03-21T06:18:29.587Z,26.67
2023-03-21T06:20:57.828Z,28.63
2023-03-21T06:23:25.878Z,28.17
2023-03-21T06:25:53.855Z,30.13
2023-03-21T06:28:23.196Z,27.97
2023-03-21T06:30:51.170Z,26.53
2023-03-21T06:33:19.265Z,27.07
2023-03-21T06:35:53.612Z,26.17
2023-03-21T06:38:21.784Z,26.73
2023-03-21T06:40:50.385Z,26.00
2023-03-21T06:43:18.586Z,27.43
2023-03-21T06:45:47.947Z,27.17
2023-03-21T06:48:15.941Z,26.63
2023-03-21T06:50:44.021Z,25.97
2023-03-21T06:53:12.069Z,26.27
2023-03-21T06:55:40.421Z,25.37
2023-03-21T06:58:14.736Z,26.17
2023-03-21T07:00:42.929Z,26.93
2023-03-21T07:03:12.672Z,27.10
2023-03-21T07:05:42.098Z,27.43
2023-03-21T07:08:12.327Z,25.37
2023-03-21T07:10:44.340Z,26.37
2023-03-21T07:13:13.625Z,24.80
2023-03-21T07:15:41.771Z,26.30
2023-03-21T07:18:11.789Z,26.73
2023-03-21T07:20:39.934Z,26.70
2023-03-21T07:23:08.366Z,27.63
2023-03-21T07:25:37.218Z,27.13
2023-03-21T07:28:09.148Z,26.73
2023-03-21T07:30:37.838Z,28.37
2023-03-21T07:33:07.430Z,28.63
2023-03-21T07:35:37.687Z,27.47
2023-03-21T07:38:06.314Z,27.20
2023-03-21T07:40:34.485Z,27.60
2023-03-21T07:45:36.018Z,25.20
2023-03-21T07:48:04.290Z,25.40
2023-03-21T07:50:32.680Z,25.90
2023-03-21T07:53:02.148Z,24.20
2023-03-21T07:55:30.254Z,24.67
2023-03-21T07:57:58.223Z,25.33
2023-03-21T08:00:27.041Z,24.57
2023-03-21T08:02:58.897Z,25.87
2023-03-21T08:05:28.973Z,26.87
2023-03-21T08:07:57.296Z,25.10
2023-03-21T08:10:27.288Z,27.17
2023-03-21T08:12:55.380Z,27.63
2023-03-21T08:15:23.866Z,27.80
2023-03-21T08:17:52.364Z,29.00
2023-03-21T08:20:22.312Z,28.33
2023-03-21T08:22:51.147Z,29.10
2023-03-21T08:25:21.796Z,27.13
2023-03-21T08:27:52.264Z,28.23
2023-03-21T08:30:22.310Z,28.20
2023-03-21T08:32:51.100Z,28.90
2023-03-21T08:35:20.735Z,27.70
2023-03-21T08:37:48.897Z,28.10
2023-03-21T08:40:20.612Z,30.40
2023-03-21T08:42:48.658Z,29.00
2023-03-21T08:45:19.530Z,28.43
2023-03-21T08:47:48.172Z,28.50
2023-03-21T08:50:18.427Z,29.73
2023-03-21T08:52:47.189Z,27.63
2023-03-21T08:55:16.640Z,28.63
2023-03-21T08:57:45.184Z,25.37
2023-03-21T09:00:17.175Z,27.23
2023-03-21T09:02:48.498Z,28.27
2023-03-21T09:05:16.964Z,27.63
2023-03-21T09:07:45.557Z,28.00
2023-03-21T09:10:22.719Z,26.97
2023-03-21T09:12:53.333Z,27.97
2023-03-21T09:15:24.329Z,28.97
2023-03-21T09:17:55.898Z,28.70
2023-03-21T09:20:30.924Z,29.57
2023-03-21T09:23:01.584Z,29.03
2023-03-21T09:25:31.145Z,28.90
2023-03-21T09:28:00.351Z,29.40
2023-03-21T09:30:28.672Z,30.67
2023-03-21T09:32:59.614Z,30.63
2023-03-21T09:35:29.069Z,31.73
2023-03-21T09:37:59.578Z,31.83
2023-03-21T09:40:53.019Z,31.73
2023-03-21T09:43:35.705Z,31.97
2023-03-21T09:46:10.735Z,31.63
2023-03-21T09:48:56.749Z,32.40
2023-03-21T09:51:29.180Z,33.00
2023-03-21T09:54:00.891Z,31.47
2023-03-21T09:56:29.361Z,33.93
2023-03-21T09:59:00.345Z,33.93
2023-03-21T10:01:34.625Z,31.33
2023-03-21T10:04:08.095Z,28.63
2023-03-21T10:06:40.170Z,29.50
2023-03-21T10:09:15.126Z,28.07
2023-03-21T10:11:46.214Z,29.00
2023-03-21T10:14:20.209Z,28.37
2023-03-21T10:16:51.059Z,31.90
2023-03-21T10:19:21.461Z,27.27
2023-03-21T10:22:00.902Z,27.37
2023-03-21T10:24:32.647Z,25.93
2023-03-21T10:27:02.498Z,26.30
2023-03-21T10:29:43.307Z,27.00
2023-03-21T10:32:13.084Z,27.27
2023-03-21T10:34:47.047Z,25.23
2023-03-21T10:37:16.883Z,24.83
2023-03-21T10:39:48.291Z,23.43
2023-03-21T10:42:21.661Z,24.90
2023-03-21T10:44:51.803Z,23.03
2023-03-21T10:47:23.067Z,25.17
2023-03-21T10:50:09.485Z,24.37
2023-03-21T10:52:42.752Z,25.27
2023-03-21T10:55:21.454Z,23.50
2023-03-21T10:57:50.334Z,22.47
2023-03-21T11:00:23.074Z,24.10
2023-03-21T11:02:52.704Z,23.93
2023-03-21T11:05:25.276Z,23.47
2023-03-21T11:08:02.885Z,24.50
2023-03-21T11:10:33.417Z,22.80
2023-03-21T11:13:07.167Z,23.03
2023-03-21T11:15:43.322Z,22.93
2023-03-21T11:18:21.334Z,25.30
2023-03-21T11:20:58.214Z,26.83
2023-03-21T11:23:30.780Z,27.13
2023-03-21T11:26:01.413Z,28.23
2023-03-21T11:28:39.390Z,24.75
2023-03-21T11:31:09.319Z,24.63
2023-03-21T11:33:40.378Z,23.65
2023-03-21T11:36:28.498Z,22.33
2023-03-21T11:38:59.884Z,21.27
2023-03-21T11:41:32.017Z,21.17
2023-03-21T11:44:01.718Z,18.83
2023-03-21T11:46:31.484Z,18.30
2023-03-21T11:49:01.649Z,19.05
2023-03-21T11:51:38.156Z,18.58
2023-03-21T11:54:13.837Z,18.85
2023-03-21T11:56:46.672Z,19.10
2023-03-21T11:59:29.024Z,18.77
2023-03-21T12:02:07.016Z,18.13
2023-03-21T12:04:43.316Z,20.83
2023-03-21T12:07:26.844Z,20.40
2023-03-21T12:10:02.197Z,19.63
2023-03-21T12:12:40.036Z,20.70
2023-03-21T12:15:18.854Z,19.87
2023-03-21T12:17:56.154Z,19.90
2023-03-21T12:20:43.304Z,19.07
2023-03-21T12:23:30.160Z,18.53
2023-03-21T12:26:11.185Z,18.48
2023-03-21T12:28:48.752Z,18.00
2023-03-21T12:31:26.589Z,15.73
2023-03-21T12:34:13.589Z,15.83
2023-03-21T12:36:55.749Z,15.85
2023-03-21T12:39:30.923Z,15.77
2023-03-21T12:42:18.479Z,14.90
2023-03-21T12:44:51.674Z,15.90
2023-03-21T12:47:25.040Z,16.37
2023-03-21T12:49:57.556Z,17.53
2023-03-21T12:52:28.490Z,17.07
2023-03-21T12:55:03.191Z,17.83
2023-03-21T12:57:40.206Z,17.40
2023-03-21T13:00:17.617Z,18.13
2023-03-21T13:02:51.675Z,18.17
2023-03-21T13:05:24.606Z,20.33
2023-03-21T13:07:57.718Z,19.77
2023-03-21T13:10:27.510Z,20.40
2023-03-21T13:13:18.440Z,20.13
2023-03-21T13:15:58.570Z,17.03
2023-03-21T13:18:39.829Z,18.10
2023-03-21T13:21:16.690Z,18.30
2023-03-21T13:24:02.060Z,18.50
2023-03-21T13:26:41.184Z,18.40
2023-03-21T13:29:22.946Z,19.43
2023-03-21T13:31:55.191Z,19.77
2023-03-21T13:34:25.772Z,21.17
2023-03-21T13:36:57.905Z,21.23
2023-03-21T13:39:29.611Z,18.97
2023-03-21T13:42:07.336Z,18.07
2023-03-21T13:44:42.351Z,19.60
2023-03-21T13:47:29.499Z,20.23
2023-03-21T13:50:34.386Z,18.90
2023-03-21T13:53:21.704Z,18.90
2023-03-21T13:56:00.656Z,19.43
2023-03-21T13:58:40.217Z,18.43
2023-03-21T14:01:36.520Z,18.77
2023-03-21T14:04:17.583Z,18.63
2023-03-21T14:06:50.845Z,19.20
2023-03-21T14:09:26.112Z,19.50
2023-03-21T14:11:58.758Z,22.40
2023-03-21T14:14:38.578Z,19.93
2023-03-21T14:17:13.391Z,18.23
2023-03-21T14:19:41.414Z,20.13
2023-03-21T14:22:12.955Z,18.27
2023-03-21T14:24:41.315Z,18.57
2023-03-21T14:27:10.100Z,19.53
2023-03-21T14:29:41.801Z,19.00
2023-03-21T14:32:22.981Z,20.03
2023-03-21T14:34:51.238Z,17.00
2023-03-21T14:37:32.148Z,18.57
2023-03-21T14:40:02.210Z,18.70
2023-03-21T14:42:35.899Z,18.67
2023-03-21T14:45:20.258Z,20.27
2023-03-21T14:47:59.993Z,18.53
2023-03-21T14:50:34.796Z,19.67
2023-03-21T14:53:03.210Z,19.17
2023-03-21T14:55:31.945Z,19.00
2023-03-21T14:58:00.122Z,19.47
2023-03-21T15:00:31.784Z,22.63
2023-03-21T15:03:03.063Z,20.40
2023-03-21T15:05:33.791Z,22.97
2023-03-21T15:08:03.903Z,21.53
2023-03-21T15:10:32.792Z,23.33
2023-03-21T15:13:03.290Z,23.17
2023-03-21T15:15:34.004Z,23.17
2023-03-21T15:18:06.035Z,22.33
2023-03-21T15:20:37.542Z,22.97
2023-03-21T15:23:09.462Z,21.00
2023-03-21T15:25:38.600Z,22.57
2023-03-21T15:28:07.108Z,21.67
2023-03-21T15:30:36.587Z,21.10
2023-03-21T15:33:09.543Z,25.17
2023-03-21T15:35:40.437Z,23.77
2023-03-21T15:38:21.948Z,22.23
2023-03-21T15:40:49.942Z,21.17
2023-03-21T15:43:19.782Z,21.67
2023-03-21T15:45:51.058Z,21.40
2023-03-21T15:48:23.096Z,21.57
2023-03-21T15:50:57.575Z,21.37
2023-03-21T15:53:26.013Z,21.50
2023-03-21T15:56:01.945Z,21.73
2023-03-21T15:58:36.074Z,21.20
2023-03-21T16:01:07.877Z,22.47
2023-03-21T16:03:38.045Z,23.83
2023-03-21T16:06:11.036Z,24.37
2023-03-21T16:08:44.738Z,22.40
2023-03-21T16:11:19.057Z,21.30
2023-03-21T16:13:47.264Z,21.17
2023-03-21T16:16:19.107Z,22.63
2023-03-21T16:18:47.188Z,22.47
2023-03-21T16:21:17.265Z,23.40
2023-03-21T16:23:45.489Z,24.83
2023-03-21T16:26:14.816Z,24.63
2023-03-21T16:28:43.044Z,23.70
2023-03-21T16:31:14.566Z,23.17
2023-03-21T16:33:44.283Z,25.03
2023-03-21T16:36:15.535Z,24.83
2023-03-21T16:38:43.528Z,23.93
2023-03-21T16:41:12.496Z,22.33
2023-03-21T16:43:43.846Z,24.40
2023-03-21T16:46:14.682Z,25.17
2023-03-21T16:48:46.171Z,27.03
2023-03-21T16:51:15.312Z,26.40
2023-03-21T16:53:43.713Z,24.23
2023-03-21T16:56:16.672Z,24.13
2023-03-21T16:58:44.938Z,25.03
2023-03-21T17:01:16.078Z,29.73
2023-03-21T17:03:45.830Z,30.63
2023-03-21T17:06:18.593Z,26.47
2023-03-21T17:08:47.277Z,26.63
2023-03-21T17:11:19.983Z,24.93
2023-03-21T17:13:48.331Z,26.43
2023-03-21T17:16:19.261Z,24.07
2023-03-21T17:18:49.372Z,23.97
2023-03-21T17:21:19.284Z,23.57
2023-03-21T17:23:47.815Z,26.13
2023-03-21T17:26:19.421Z,23.40
2023-03-21T17:28:47.396Z,22.83
2023-03-21T17:31:16.953Z,23.80
2023-03-21T17:33:45.828Z,24.10
2023-03-21T17:36:17.396Z,24.00
2023-03-21T17:38:46.588Z,25.98
2023-03-21T17:41:16.589Z,25.97
2023-03-21T17:43:44.836Z,25.47
2023-03-21T17:46:14.164Z,28.90
2023-03-21T17:48:43.129Z,30.08
2023-03-21T17:51:14.636Z,29.47
2023-03-21T17:53:44.088Z,31.33
2023-03-21T17:56:15.932Z,30.87
2023-03-21T17:58:44.049Z,31.10
2023-03-21T18:01:12.020Z,30.90
2023-03-21T18:03:40.193Z,29.37
2023-03-21T18:06:13.823Z,36.00
2023-03-21T18:08:43.403Z,41.47
2023-03-21T18:11:12.779Z,43.70
2023-03-21T18:13:40.762Z,52.70
2023-03-21T18:16:11.345Z,56.27
2023-03-21T18:18:39.343Z,51.20
2023-03-21T18:21:10.948Z,43.80
2023-03-21T18:23:39.043Z,42.60
2023-03-21T18:26:09.671Z,41.77
2023-03-21T18:28:39.967Z,39.53
2023-03-21T18:31:16.262Z,35.63
2023-03-21T18:33:48.047Z,35.43
2023-03-21T18:36:24.861Z,35.93
2023-03-21T18:38:55.479Z,36.30
2023-03-21T18:41:24.851Z,35.93
2023-03-21T18:44:05.839Z,39.97
2023-03-21T18:46:46.841Z,39.70
2023-03-21T18:49:58.882Z,41.80
2023-03-21T18:52:03.474Z,36.97
2023-03-21T18:54:31.534Z,36.73
2023-03-21T18:59:49.104Z,35.03
2023-03-21T19:02:17.142Z,34.80
2023-03-21T19:04:45.522Z,34.80
2023-03-21T19:07:13.570Z,35.13
2023-03-21T19:12:31.334Z,33.93
2023-03-21T19:14:59.312Z,33.47
2023-03-21T19:18:21.867Z,37.00
2023-03-21T19:20:16.609Z,35.93
2023-03-21T19:22:44.865Z,35.17
2023-03-21T19:25:14.562Z,37.30
2023-03-21T19:27:44.140Z,35.17
2023-03-21T19:30:15.826Z,37.37
2023-03-21T19:32:44.495Z,39.30
2023-03-21T19:35:13.222Z,38.27
2023-03-21T19:37:41.407Z,37.00
2023-03-21T19:40:10.423Z,35.87
2023-03-21T19:42:38.452Z,34.80
2023-03-21T19:45:09.302Z,36.43
2023-03-21T19:47:37.293Z,34.23
2023-03-21T19:50:45.566Z,35.73
2023-03-21T19:52:54.354Z,35.27
2023-03-21T19:55:22.357Z,35.07
2023-03-21T19:57:50.618Z,34.30
2023-03-21T20:00:21.221Z,35.67
2023-03-21T20:02:49.270Z,36.13
2023-03-21T20:05:19.702Z,35.17
2023-03-21T20:07:47.808Z,36.73
2023-03-21T20:10:15.818Z,37.07
2023-03-21T20:12:43.863Z,38.37
2023-03-21T20:15:19.225Z,39.93
2023-03-21T20:17:50.845Z,40.00
2023-03-21T20:20:19.562Z,38.30
2023-03-21T20:25:40.975Z,41.07
2023-03-21T20:28:24.682Z,41.03
2023-03-21T20:30:56.922Z,40.73
2023-03-21T20:33:26.591Z,42.97
2023-03-21T20:38:51.426Z,43.67
2023-03-21T20:41:19.554Z,44.80
2023-03-21T20:44:29.899Z,43.60
2023-03-21T20:46:37.693Z,42.20
2023-03-21T20:49:07.677Z,45.60
2023-03-21T20:54:24.377Z,44.40
2023-03-21T20:56:52.367Z,43.93
2023-03-21T20:59:26.404Z,47.40
2023-03-21T21:01:55.756Z,46.93
2023-03-21T21:04:44.295Z,46.00
2023-03-21T21:07:16.201Z,44.20
2023-03-21T21:09:45.017Z,44.10
2023-03-21T21:12:13.850Z,46.10
2023-03-21T21:14:42.766Z,46.97
2023-03-21T21:17:28.377Z,46.00
2023-03-21T21:20:01.565Z,45.03
2023-03-21T21:22:29.906Z,45.60
2023-03-21T21:24:57.838Z,42.50
2023-03-21T21:27:26.102Z,44.60
2023-03-21T21:29:54.052Z,44.90
2023-03-21T21:32:22.126Z,45.57
2023-03-21T21:34:50.283Z,46.57
2023-03-21T21:37:19.590Z,43.97
2023-03-21T21:39:47.866Z,43.60
2023-03-21T21:42:16.353Z,42.27
2023-03-21T21:44:46.709Z,40.50
2023-03-21T21:47:15.555Z,42.27
2023-03-21T21:49:43.524Z,42.50
2023-03-21T21:52:13.567Z,42.20
2023-03-21T21:54:45.795Z,43.57
2023-03-21T21:57:14.637Z,42.13
2023-03-21T21:59:42.644Z,45.10
2023-03-21T22:02:13.793Z,42.80
2023-03-21T22:04:41.933Z,42.83
2023-03-21T22:07:14.397Z,43.57
2023-03-21T22:09:44.885Z,44.93
2023-03-21T22:12:12.887Z,44.27
2023-03-21T22:14:40.945Z,46.57
2023-03-21T22:17:09.090Z,46.30
2023-03-21T22:19:39.133Z,46.20
2023-03-21T22:22:08.170Z,45.07
2023-03-21T22:24:37.440Z,45.23
2023-03-21T22:27:06.910Z,45.60
2023-03-21T22:29:34.855Z,46.10
2023-03-21T22:32:02.862Z,45.17
2023-03-21T22:34:31.175Z,44.13
2023-03-21T22:36:59.750Z,46.47
2023-03-21T22:39:28.711Z,44.77
2023-03-21T22:42:00.818Z,45.37
2023-03-21T22:44:34.548Z,46.40
2023-03-21T22:47:03.127Z,45.47
2023-03-21T22:49:31.839Z,44.97
2023-03-21T22:52:00.007Z,46.67
2023-03-21T22:54:28.418Z,51.27
2023-03-21T22:56:56.927Z,50.60
2023-03-21T22:59:25.103Z,52.57
2023-03-21T23:01:54.577Z,49.83
2023-03-21T23:04:22.580Z,50.80
2023-03-21T23:06:50.916Z,47.10
2023-03-21T23:09:18.890Z,45.83
2023-03-21T23:11:49.610Z,47.13
2023-03-21T23:14:19.443Z,49.03
2023-03-21T23:16:47.698Z,46.97
2023-03-21T23:19:17.461Z,49.60
2023-03-21T23:21:46.358Z,48.53
2023-03-21T23:24:14.570Z,49.40
2023-03-21T23:26:42.759Z,47.43
2023-03-21T23:29:11.813Z,45.30
2023-03-21T23:31:40.048Z,49.83
2023-03-21T23:34:08.355Z,48.17
2023-03-21T23:36:37.841Z,47.93
2023-03-21T23:39:06.604Z,48.73
2023-03-21T23:41:34.552Z,49.40
2023-03-21T23:44:03.100Z,47.90
2023-03-21T23:46:31.256Z,48.07
2023-03-21T23:48:59.306Z,48.50
2023-03-21T23:51:27.324Z,47.53
2023-03-21T23:53:57.204Z,50.97
2023-03-21T23:56:27.431Z,51.03
2023-03-21T23:58:55.455Z,47.50
